createdAt,value
2022-11-16T00:01:52.367Z,100355.52
2022-11-16T00:04:20.090Z,100359.28
2022-11-16T00:06:50.416Z,100362.62
2022-11-16T00:09:24.089Z,100357.91
2022-11-16T00:11:58.002Z,100358.98
2022-11-16T00:14:27.974Z,100350.16
2022-11-16T00:16:56.218Z,100333.48
2022-11-16T00:19:24.605Z,100335.25
2022-11-16T00:21:52.613Z,100329.55
2022-11-16T00:24:21.974Z,100324.13
2022-11-16T00:26:50.163Z,100321.09
2022-11-16T00:29:20.405Z,100305.78
2022-11-16T00:31:48.793Z,100313.11
2022-11-16T00:34:16.835Z,100313.86
2022-11-16T00:36:44.558Z,100304.54
2022-11-16T00:39:16.897Z,100308.95
2022-11-16T00:41:45.863Z,100313.11
2022-11-16T00:44:14.230Z,100313.60
2022-11-16T00:46:42.806Z,100314.87
2022-11-16T00:49:10.912Z,100312.23
2022-11-16T00:51:39.141Z,100326.98
2022-11-16T00:54:08.794Z,100330.84
2022-11-16T00:56:37.554Z,100325.30
2022-11-16T00:59:05.186Z,100324.75
2022-11-16T01:01:32.872Z,100329.07
2022-11-16T01:04:00.568Z,100328.48
2022-11-16T01:06:28.174Z,100340.12
2022-11-16T01:08:55.852Z,100333.32
2022-11-16T01:11:42.301Z,100334.30
2022-11-16T01:14:10.992Z,100334.79
2022-11-16T01:16:38.733Z,100337.34
2022-11-16T01:19:07.020Z,100338.13
2022-11-16T01:21:35.529Z,100335.54
2022-11-16T01:24:03.302Z,100320.50
2022-11-16T01:26:31.035Z,100328.61
2022-11-16T01:29:00.749Z,100328.87
2022-11-16T01:31:28.412Z,100331.75
2022-11-16T01:33:56.189Z,100341.40
2022-11-16T01:36:24.141Z,100340.12
2022-11-16T01:38:51.817Z,100343.55
2022-11-16T01:41:23.301Z,100357.62
2022-11-16T01:44:00.368Z,100360.95
2022-11-16T01:46:29.477Z,100359.38
2022-11-16T01:49:17.194Z,100365.40
2022-11-16T01:51:50.311Z,100379.66
2022-11-16T01:54:18.533Z,100378.09
2022-11-16T01:56:49.861Z,100383.80
2022-11-16T01:59:18.548Z,100383.80
2022-11-16T02:01:46.277Z,100396.79
2022-11-16T02:04:14.970Z,100397.61
2022-11-16T02:07:06.055Z,100403.79
2022-11-16T02:10:05.215Z,100407.45
2022-11-16T02:12:44.778Z,100410.30
2022-11-16T02:15:27.487Z,100408.23
2022-11-16T02:18:32.324Z,100416.51
2022-11-16T02:21:14.514Z,100410.78
2022-11-16T02:23:54.692Z,100410.30
2022-11-16T02:27:07.010Z,100414.35
2022-11-16T02:29:43.825Z,100399.96
2022-11-16T02:32:35.327Z,100408.20
2022-11-16T02:35:16.427Z,100406.63
2022-11-16T02:37:54.128Z,100406.63
2022-11-16T02:40:25.032Z,100408.73
2022-11-16T02:43:01.221Z,100406.14
2022-11-16T02:45:33.948Z,100409.02
2022-11-16T02:48:07.966Z,100399.14
2022-11-16T02:50:38.000Z,100394.53
2022-11-16T02:53:05.621Z,100387.08
2022-11-16T02:55:35.547Z,100392.08
2022-11-16T02:58:10.907Z,100384.59
2022-11-16T03:00:47.558Z,100379.20
2022-11-16T03:03:30.606Z,100378.70
2022-11-16T03:06:22.781Z,100374.55
2022-11-16T03:09:18.425Z,100380.38
2022-11-16T03:12:00.943Z,100373.38
2022-11-16T03:14:31.348Z,100371.61
2022-11-16T03:16:59.744Z,100361.77
2022-11-16T03:19:58.172Z,100373.48
2022-11-16T03:22:45.679Z,100370.14
2022-11-16T03:25:17.032Z,100380.87
2022-11-16T03:27:56.210Z,100373.08
2022-11-16T03:30:26.528Z,100371.80
2022-11-16T03:33:26.998Z,100379.10
2022-11-16T03:36:16.417Z,100360.39
2022-11-16T03:38:47.674Z,100362.72
2022-11-16T03:41:16.365Z,100359.09
2022-11-16T03:43:45.893Z,100358.10
2022-11-16T03:46:14.969Z,100366.67
2022-11-16T03:48:43.573Z,100371.09
2022-11-16T03:51:13.296Z,100372.20
2022-11-16T03:53:41.034Z,100373.77
2022-11-16T03:56:08.891Z,100366.28
2022-11-16T03:58:36.620Z,100376.71
2022-11-16T04:01:04.687Z,100379.85
2022-11-16T04:03:32.463Z,100387.14
2022-11-16T04:06:18.777Z,100403.49
2022-11-16T04:09:04.927Z,100393.35
2022-11-16T04:11:51.491Z,100405.55
2022-11-16T04:14:40.700Z,100397.28
2022-11-16T04:17:34.861Z,100399.86
2022-11-16T04:20:21.641Z,100394.44
2022-11-16T04:23:18.722Z,100390.31
2022-11-16T04:25:47.874Z,100384.59
2022-11-16T04:28:17.694Z,100386.16
2022-11-16T04:31:07.594Z,100384.88
2022-11-16T04:33:53.750Z,100380.73
2022-11-16T04:36:40.121Z,100383.09
2022-11-16T04:39:08.390Z,100376.88
2022-11-16T04:41:54.834Z,100376.38
2022-11-16T04:44:26.024Z,100380.30
2022-11-16T04:47:09.407Z,100376.97
2022-11-16T04:49:37.027Z,100373.34
2022-11-16T04:52:04.859Z,100373.12
2022-11-16T04:54:32.496Z,100373.12
2022-11-16T04:57:00.084Z,100371.84
2022-11-16T04:59:27.723Z,100377.07
2022-11-16T05:02:10.552Z,100374.48
2022-11-16T05:04:40.036Z,100365.13
2022-11-16T05:07:12.013Z,100357.84
2022-11-16T05:09:45.072Z,100359.91
2022-11-16T05:12:16.028Z,100359.91
2022-11-16T05:14:44.569Z,100359.91
2022-11-16T05:17:13.358Z,100356.27
2022-11-16T05:19:59.725Z,100355.00
2022-11-16T05:22:27.485Z,100356.27
2022-11-16T05:24:55.305Z,100357.05
2022-11-16T05:27:24.553Z,100353.10
2022-11-16T05:29:52.822Z,100358.53
2022-11-16T05:32:21.544Z,100345.55
2022-11-16T05:34:49.584Z,100347.90
2022-11-16T05:37:18.688Z,100347.90
2022-11-16T05:39:46.450Z,100333.32
2022-11-16T05:42:15.057Z,100336.46
2022-11-16T05:44:42.749Z,100343.48
2022-11-16T05:47:10.395Z,100339.04
2022-11-16T05:49:38.078Z,100342.37
2022-11-16T05:52:05.730Z,100340.02
2022-11-16T05:54:33.398Z,100342.87
2022-11-16T05:57:01.252Z,100353.52
2022-11-16T05:59:30.411Z,100349.87
2022-11-16T06:01:58.957Z,100349.11
2022-11-16T06:04:26.657Z,100350.39
2022-11-16T06:06:54.406Z,100355.78
2022-11-16T06:09:22.182Z,100351.89
2022-11-16T06:11:49.883Z,100349.51
2022-11-16T06:14:17.823Z,100363.30
2022-11-16T06:16:45.444Z,100358.07
2022-11-16T06:19:13.131Z,100364.58
2022-11-16T06:21:40.829Z,100369.02
2022-11-16T06:24:10.548Z,100371.09
2022-11-16T06:26:38.485Z,100380.44
2022-11-16T06:29:06.334Z,100378.64
2022-11-16T06:31:34.028Z,100382.30
2022-11-16T06:34:01.677Z,100381.03
2022-11-16T06:36:29.463Z,100383.09
2022-11-16T06:38:57.101Z,100387.53
2022-11-16T06:41:24.877Z,100390.09
2022-11-16T06:43:52.622Z,100395.52
2022-11-16T06:46:20.336Z,100391.06
2022-11-16T06:48:48.008Z,100391.55
2022-11-16T06:51:15.664Z,100393.65
2022-11-16T06:53:43.454Z,100399.86
2022-11-16T06:56:14.660Z,100401.43
2022-11-16T06:58:43.019Z,100401.92
2022-11-16T07:01:12.909Z,100399.86
2022-11-16T07:03:40.865Z,100403.88
2022-11-16T07:06:12.889Z,100405.65
2022-11-16T07:08:40.894Z,100411.38
2022-11-16T07:11:11.125Z,100410.98
2022-11-16T07:13:40.233Z,100413.47
2022-11-16T07:16:09.746Z,100414.31
2022-11-16T07:18:40.361Z,100409.51
2022-11-16T07:21:09.822Z,100407.22
2022-11-16T07:23:37.894Z,100417.36
2022-11-16T07:26:07.354Z,100418.93
2022-11-16T07:28:35.691Z,100411.14
2022-11-16T07:31:04.573Z,100419.05
2022-11-16T07:33:32.223Z,100417.26
2022-11-16T07:36:04.150Z,100421.18
2022-11-16T07:38:33.444Z,100421.48
2022-11-16T07:41:05.782Z,100414.48
2022-11-16T07:43:36.208Z,100414.74
2022-11-16T07:46:44.673Z,100425.50
2022-11-16T07:48:57.929Z,100422.43
2022-11-16T07:51:25.578Z,100432.20
2022-11-16T07:53:57.038Z,100432.76
2022-11-16T07:56:25.606Z,100428.70
2022-11-16T07:58:53.645Z,100435.77
2022-11-16T08:01:21.325Z,100436.13
2022-11-16T08:03:49.269Z,100433.05
2022-11-16T08:06:24.446Z,100441.23
2022-11-16T08:08:57.809Z,100446.52
2022-11-16T08:11:26.349Z,100443.98
2022-11-16T08:13:53.991Z,100451.82
2022-11-16T08:16:23.684Z,100455.78
2022-11-16T08:18:51.633Z,100450.81
2022-11-16T08:21:20.192Z,100458.63
2022-11-16T08:23:48.754Z,100461.27
2022-11-16T08:26:20.131Z,100452.90
2022-11-16T08:28:51.957Z,100461.02
2022-11-16T08:31:22.344Z,100457.05
2022-11-16T08:33:50.062Z,100463.56
2022-11-16T08:36:20.582Z,100455.98
2022-11-16T08:38:50.084Z,100455.68
2022-11-16T08:41:19.262Z,100457.74
2022-11-16T08:43:48.361Z,100454.41
2022-11-16T08:46:16.421Z,100456.99
2022-11-16T08:48:44.076Z,100455.09
2022-11-16T08:51:19.211Z,100453.52
2022-11-16T08:53:49.211Z,100462.65
2022-11-16T08:56:19.018Z,100465.79
2022-11-16T08:58:55.255Z,100462.71
2022-11-16T09:01:28.155Z,100465.66
2022-11-16T09:03:56.046Z,100464.91
2022-11-16T09:06:25.330Z,100474.38
2022-11-16T09:08:53.838Z,100472.62
2022-11-16T09:11:23.519Z,100469.02
2022-11-16T09:13:53.284Z,100478.48
2022-11-16T09:16:22.135Z,100469.45
2022-11-16T09:18:51.996Z,100473.18
2022-11-16T09:21:21.979Z,100468.30
2022-11-16T09:23:50.553Z,100471.73
2022-11-16T09:26:22.054Z,100474.95
2022-11-16T09:28:56.910Z,100470.27
2022-11-16T09:31:25.554Z,100459.61
2022-11-16T09:33:53.466Z,100461.96
2022-11-16T09:36:22.397Z,100466.11
2022-11-16T09:41:53.671Z,100473.14
2022-11-16T09:44:47.588Z,100468.44
2022-11-16T09:47:46.747Z,100466.87
2022-11-16T09:50:35.455Z,100473.86
2022-11-16T09:53:18.811Z,100470.98
2022-11-16T09:55:53.207Z,100474.16
2022-11-16T09:59:13.531Z,100478.87
2022-11-16T10:01:49.975Z,100465.33
2022-11-16T10:04:56.682Z,100467.68
2022-11-16T10:07:43.135Z,100473.70
2022-11-16T10:10:15.986Z,100466.51
2022-11-16T10:13:04.981Z,100452.25
2022-11-16T10:15:55.445Z,100457.74
2022-11-16T10:18:25.749Z,100464.84
2022-11-16T10:21:23.215Z,100459.15
2022-11-16T10:24:29.388Z,100464.15
2022-11-16T10:27:38.966Z,100461.83
2022-11-16T10:30:13.079Z,100450.41
2022-11-16T10:32:48.954Z,100450.65
2022-11-16T10:35:21.078Z,100447.34
2022-11-16T10:37:52.809Z,100452.09
2022-11-16T10:40:41.084Z,100451.63
2022-11-16T10:43:20.642Z,100439.92
2022-11-16T10:46:13.894Z,100443.91
2022-11-16T10:49:00.028Z,100450.45
2022-11-16T10:51:27.663Z,100440.09
2022-11-16T10:53:56.839Z,100433.84
2022-11-16T10:56:32.963Z,100426.58
2022-11-16T10:59:12.753Z,100422.91
2022-11-16T11:01:58.600Z,100426.64
2022-11-16T11:04:29.204Z,100421.45
2022-11-16T11:07:24.869Z,100424.59
2022-11-16T11:09:55.888Z,100413.11
2022-11-16T11:12:40.116Z,100410.78
2022-11-16T11:15:13.659Z,100415.92
2022-11-16T11:17:50.267Z,100401.30
2022-11-16T11:20:17.952Z,100410.16
2022-11-16T11:23:01.084Z,100413.27
2022-11-16T11:25:38.389Z,100398.42
2022-11-16T11:28:19.939Z,100402.87
2022-11-16T11:31:10.752Z,100399.80
2022-11-16T11:33:43.624Z,100394.30
2022-11-16T11:36:22.631Z,100393.81
2022-11-16T11:39:29.360Z,100389.63
2022-11-16T11:42:08.197Z,100386.78
2022-11-16T11:44:45.980Z,100384.16
2022-11-16T11:47:57.900Z,100377.13
2022-11-16T11:50:37.019Z,100382.40
2022-11-16T11:53:36.088Z,100379.55
2022-11-16T11:56:04.130Z,100381.16
2022-11-16T11:58:35.066Z,100375.44
2022-11-16T12:01:23.779Z,100376.25
2022-11-16T12:04:14.200Z,100376.81
2022-11-16T12:06:49.997Z,100381.78
2022-11-16T12:09:28.691Z,100369.26
2022-11-16T12:12:24.442Z,100365.59
2022-11-16T12:15:19.884Z,100356.70
2022-11-16T12:18:10.492Z,100355.91
2022-11-16T12:20:47.344Z,100350.42
2022-11-16T12:23:42.375Z,100355.39
2022-11-16T12:26:35.948Z,100346.76
2022-11-16T12:29:12.444Z,100347.80
2022-11-16T12:31:49.107Z,100345.71
2022-11-16T12:34:47.530Z,100341.79
2022-11-16T12:37:27.149Z,100345.19
2022-11-16T12:40:26.994Z,100348.33
2022-11-16T12:43:06.769Z,100346.76
2022-11-16T12:46:03.608Z,100333.97
2022-11-16T12:48:51.005Z,100331.84
2022-11-16T12:51:21.292Z,100333.94
2022-11-16T12:53:51.812Z,100333.41
2022-11-16T12:56:35.331Z,100328.15
2022-11-16T12:59:02.857Z,100324.98
2022-11-16T13:01:42.208Z,100323.90
2022-11-16T13:04:33.272Z,100320.23
2022-11-16T13:07:15.335Z,100319.42
2022-11-16T13:09:52.296Z,100312.59
2022-11-16T13:12:24.576Z,100308.95
2022-11-16T13:14:56.017Z,100305.88
2022-11-16T13:17:28.448Z,100299.84
2022-11-16T13:20:13.269Z,100300.91
2022-11-16T13:22:48.096Z,100303.53
2022-11-16T13:25:44.942Z,100300.16
2022-11-16T13:28:27.125Z,100278.45
2022-11-16T13:31:07.157Z,100279.49
2022-11-16T13:33:50.459Z,100277.92
2022-11-16T13:36:33.715Z,100277.70
2022-11-16T13:39:01.455Z,100271.94
2022-11-16T13:41:32.203Z,100260.73
2022-11-16T13:44:00.568Z,100259.41
2022-11-16T13:46:57.173Z,100249.51
2022-11-16T13:49:34.963Z,100247.41
2022-11-16T13:52:40.429Z,100251.08
2022-11-16T13:55:14.330Z,100252.65
2022-11-16T13:57:53.957Z,100252.91
2022-11-16T14:00:24.898Z,100258.92
2022-11-16T14:03:18.045Z,100266.28
2022-11-16T14:05:50.810Z,100258.70
2022-11-16T14:08:21.629Z,100251.14
2022-11-16T14:10:51.945Z,100251.63
2022-11-16T14:13:49.340Z,100256.38
2022-11-16T14:16:22.968Z,100260.04
2022-11-16T14:18:56.456Z,100254.28
2022-11-16T14:21:27.888Z,100263.18
2022-11-16T14:24:20.693Z,100265.79
2022-11-16T14:27:30.411Z,100265.79
2022-11-16T14:30:06.739Z,100262.39
2022-11-16T14:32:42.539Z,100266.02
2022-11-16T14:35:42.649Z,100252.98
2022-11-16T14:38:37.447Z,100242.54
2022-11-16T14:41:19.342Z,100241.73
2022-11-16T14:43:51.555Z,100233.13
2022-11-16T14:46:39.305Z,100235.48
2022-11-16T14:49:15.477Z,100246.99
2022-11-16T14:51:54.336Z,100250.36
2022-11-16T14:54:43.603Z,100242.80
2022-11-16T14:57:20.434Z,100239.41
2022-11-16T14:59:48.298Z,100236.82
2022-11-16T15:02:21.794Z,100228.71
2022-11-16T15:04:51.212Z,100233.65
2022-11-16T15:07:20.256Z,100228.16
2022-11-16T15:09:51.624Z,100233.65
2022-11-16T15:12:42.407Z,100227.89
2022-11-16T15:15:12.743Z,100227.89
2022-11-16T15:17:43.480Z,100224.49
2022-11-16T15:20:21.630Z,100222.63
2022-11-16T15:22:52.989Z,100228.61
2022-11-16T15:25:41.615Z,100231.72
2022-11-16T15:28:22.554Z,100228.25
2022-11-16T15:30:53.628Z,100226.42
2022-11-16T15:33:26.435Z,100235.52
2022-11-16T15:35:56.511Z,100233.91
2022-11-16T15:38:30.121Z,100232.83
2022-11-16T15:41:03.522Z,100221.58
2022-11-16T15:43:41.082Z,100215.56
2022-11-16T15:46:15.026Z,100215.53
2022-11-16T15:48:44.195Z,100208.47
2022-11-16T15:51:21.109Z,100199.84
2022-11-16T15:53:50.723Z,100198.76
2022-11-16T15:56:23.684Z,100213.37
2022-11-16T15:58:52.783Z,100207.06
2022-11-16T16:01:22.016Z,100197.41
2022-11-16T16:03:53.039Z,100192.94
2022-11-16T16:06:43.147Z,100186.16
2022-11-16T16:09:32.054Z,100182.77
2022-11-16T16:12:19.970Z,100174.40
2022-11-16T16:14:50.257Z,100173.58
2022-11-16T16:17:31.160Z,100174.33
2022-11-16T16:20:07.541Z,100176.91
2022-11-16T16:22:38.818Z,100171.16
2022-11-16T16:25:08.237Z,100166.45
2022-11-16T16:27:41.021Z,100172.66
2022-11-16T16:30:09.755Z,100174.20
2022-11-16T16:32:38.778Z,100160.10
2022-11-16T16:35:08.943Z,100173.09
2022-11-16T16:37:39.469Z,100159.02
2022-11-16T16:40:07.829Z,100167.82
2022-11-16T16:42:35.512Z,100173.28
2022-11-16T16:45:04.181Z,100174.27
2022-11-16T16:47:32.694Z,100180.51
2022-11-16T16:50:00.333Z,100179.17
2022-11-16T16:52:28.882Z,100184.60
2022-11-16T16:54:56.507Z,100183.55
2022-11-16T16:57:24.106Z,100177.53
2022-11-16T16:59:51.702Z,100185.35
2022-11-16T17:02:19.402Z,100178.05
2022-11-16T17:04:50.126Z,100174.40
2022-11-16T17:07:17.922Z,100175.70
2022-11-16T17:09:45.687Z,100170.99
2022-11-16T17:12:13.426Z,100162.91
2022-11-16T17:14:41.254Z,100167.59
2022-11-16T17:17:08.932Z,100164.72
2022-11-16T17:19:36.602Z,100159.98
2022-11-16T17:22:04.393Z,100164.65
2022-11-16T17:24:32.056Z,100163.08
2022-11-16T17:26:59.701Z,100158.63
2022-11-16T17:29:27.353Z,100159.95
2022-11-16T17:31:55.359Z,100150.59
2022-11-16T17:34:23.226Z,100146.93
2022-11-16T17:36:50.889Z,100147.41
2022-11-16T17:39:18.775Z,100154.45
2022-11-16T17:41:46.564Z,100151.57
2022-11-16T17:44:20.165Z,100148.43
2022-11-16T17:46:49.425Z,100155.46
2022-11-16T17:49:17.073Z,100153.63
2022-11-16T17:51:45.322Z,100144.77
2022-11-16T17:54:13.128Z,100157.45
2022-11-16T17:56:40.973Z,100155.63
2022-11-16T17:59:08.608Z,100161.09
2022-11-16T18:01:36.307Z,100145.20
2022-11-16T18:04:04.100Z,100150.66
2022-11-16T18:06:33.304Z,100141.76
2022-11-16T18:09:01.288Z,100135.77
2022-11-16T18:11:29.731Z,100135.22
2022-11-16T18:14:00.196Z,100124.79
2022-11-16T18:16:30.992Z,100131.00
2022-11-16T18:19:01.119Z,100128.09
2022-11-16T18:21:29.313Z,100125.73
2022-11-16T18:23:59.398Z,100115.80
2022-11-16T18:26:27.350Z,100109.55
2022-11-16T18:28:55.418Z,100097.81
2022-11-16T18:31:25.026Z,100090.23
2022-11-16T18:33:53.054Z,100083.49
2022-11-16T18:36:21.960Z,100087.84
2022-11-16T18:38:50.115Z,100081.56
2022-11-16T18:41:20.848Z,100064.66
2022-11-16T18:43:51.223Z,100060.44
2022-11-16T18:46:22.940Z,100058.27
2022-11-16T18:48:51.492Z,100054.09
2022-11-16T18:51:20.898Z,100041.57
2022-11-16T18:53:49.139Z,100028.32
2022-11-16T18:56:17.612Z,100032.94
2022-11-16T18:58:53.591Z,100033.20
2022-11-16T19:01:24.209Z,100028.45
2022-11-16T19:03:53.304Z,100022.47
2022-11-16T19:06:21.699Z,100017.24
2022-11-16T19:08:56.028Z,100006.35
2022-11-16T19:11:25.352Z,100003.51
2022-11-16T19:13:58.824Z,100001.12
2022-11-16T19:16:28.412Z,99991.50
2022-11-16T19:18:56.438Z,99985.48
2022-11-16T19:21:24.542Z,99987.58
2022-11-16T19:23:57.128Z,100004.19
2022-11-16T19:26:28.990Z,99992.52
2022-11-16T19:28:56.847Z,99993.01
2022-11-16T19:31:28.606Z,99994.28
2022-11-16T19:33:58.113Z,100006.52
2022-11-16T19:36:27.304Z,100000.53
2022-11-16T19:38:55.343Z,100002.00
2022-11-16T19:41:23.650Z,100008.70
2022-11-16T19:43:53.815Z,100016.23
2022-11-16T19:46:22.522Z,100015.15
2022-11-16T19:48:50.726Z,100022.14
2022-11-16T19:51:21.646Z,100032.77
2022-11-16T19:53:49.459Z,100037.91
2022-11-16T19:56:19.183Z,100046.96
2022-11-16T19:58:47.268Z,100039.60
2022-11-16T20:01:18.724Z,100042.74
2022-11-16T20:03:47.723Z,100039.34
2022-11-16T20:06:21.468Z,100017.80
2022-11-16T20:09:01.924Z,100016.23
2022-11-16T20:11:31.497Z,100015.31
2022-11-16T20:13:59.857Z,100017.11
2022-11-16T20:16:34.058Z,100007.49
2022-11-16T20:19:05.196Z,99998.63
2022-11-16T20:21:38.415Z,99978.36
2022-11-16T20:24:08.216Z,99983.91
2022-11-16T20:26:37.580Z,99982.55
2022-11-16T20:29:05.351Z,99995.46
2022-11-16T20:31:34.491Z,99998.73
2022-11-16T20:34:05.088Z,100004.65
2022-11-16T20:36:34.660Z,99996.02
2022-11-16T20:39:02.588Z,99989.80
2022-11-16T20:41:31.804Z,99984.08
2022-11-16T20:44:01.256Z,99987.45
2022-11-16T20:46:31.038Z,99979.90
2022-11-16T20:49:00.528Z,99973.62
2022-11-16T20:51:29.951Z,99984.99
2022-11-16T20:53:57.749Z,99979.30
2022-11-16T20:56:25.502Z,99969.46
2022-11-16T20:58:53.234Z,99965.05
2022-11-16T21:01:29.876Z,99962.20
2022-11-16T21:03:58.581Z,99967.89
2022-11-16T21:06:26.384Z,99968.68
2022-11-16T21:08:54.865Z,99977.05
2022-11-16T21:11:26.159Z,99963.77
2022-11-16T21:14:12.446Z,99964.85
2022-11-16T21:16:40.798Z,99951.67
2022-11-16T21:19:08.663Z,99948.02
2022-11-16T21:21:36.414Z,99947.03
2022-11-16T21:24:04.064Z,99952.23
2022-11-16T21:26:33.204Z,99946.54
2022-11-16T21:29:02.388Z,99946.25
2022-11-16T21:31:35.686Z,99947.33
2022-11-16T21:34:03.765Z,99945.76
2022-11-16T21:36:33.549Z,99940.33
2022-11-16T21:39:01.568Z,99946.80
2022-11-16T21:41:29.297Z,99943.96
2022-11-16T21:43:57.054Z,99960.60
2022-11-16T21:46:27.069Z,99948.96
2022-11-16T21:48:57.285Z,99950.27
2022-11-16T21:51:27.414Z,99950.53
2022-11-16T21:53:55.882Z,99944.48
2022-11-16T21:56:25.971Z,99948.54
2022-11-16T21:58:54.740Z,99947.95
2022-11-16T22:01:23.599Z,99954.45
2022-11-16T22:04:11.274Z,99947.66
2022-11-16T22:06:57.947Z,99951.80
2022-11-16T22:09:25.671Z,99943.73
2022-11-16T22:11:53.272Z,99934.60
2022-11-16T22:14:20.942Z,99933.04
2022-11-16T22:16:48.611Z,99931.95
2022-11-16T22:19:16.225Z,99919.76
2022-11-16T22:21:43.808Z,99912.27
2022-11-16T22:24:11.450Z,99908.15
2022-11-16T22:26:40.953Z,99916.49
2022-11-16T22:29:08.689Z,99920.15
2022-11-16T22:31:37.187Z,99916.30
2022-11-16T22:34:04.833Z,99914.52
2022-11-16T22:36:32.470Z,99906.55
2022-11-16T22:39:00.121Z,99911.23
2022-11-16T22:41:27.745Z,99901.19
2022-11-16T22:43:55.564Z,99908.70
2022-11-16T22:46:23.226Z,99909.46
2022-11-16T22:48:50.997Z,99911.23
2022-11-16T22:51:26.173Z,99910.96
2022-11-16T22:53:59.001Z,99908.84
2022-11-16T22:56:27.664Z,99912.17
2022-11-16T22:58:55.474Z,99909.79
2022-11-16T23:01:23.618Z,99900.20
2022-11-16T23:03:52.025Z,99891.12
2022-11-16T23:06:19.733Z,99900.47
2022-11-16T23:08:47.539Z,99900.47
2022-11-16T23:11:36.059Z,99897.91
2022-11-16T23:14:23.052Z,99893.77
2022-11-16T23:16:51.043Z,99883.73
2022-11-16T23:19:38.950Z,99881.73
2022-11-16T23:22:26.371Z,99891.41
2022-11-16T23:25:12.563Z,99888.56
2022-11-16T23:27:56.484Z,99880.88
2022-11-16T23:30:24.565Z,99877.28
2022-11-16T23:32:52.326Z,99887.45
2022-11-16T23:35:20.262Z,99890.00
2022-11-16T23:37:58.267Z,99882.22
2022-11-16T23:40:32.968Z,99878.82
2022-11-16T23:43:19.283Z,99852.85
2022-11-16T23:45:47.377Z,99841.15
2022-11-16T23:48:17.072Z,99848.15
2022-11-16T23:50:46.194Z,99856.48
2022-11-16T23:53:14.491Z,99867.90
2022-11-16T23:55:42.708Z,99891.34
2022-11-16T23:58:15.468Z,99889.02
